sensor_id;sensor_type;location;lat;lon;timestamp;temperature;humidity
32293;DHT22;43233;48.608;8.838;2022-12-24T00:00:05;9.70;80.20
32293;DHT22;43233;48.608;8.838;2022-12-24T00:02:31;9.60;80.40
32293;DHT22;43233;48.608;8.838;2022-12-24T00:04:56;9.60;80.40
32293;DHT22;43233;48.608;8.838;2022-12-24T00:07:22;9.60;80.10
32293;DHT22;43233;48.608;8.838;2022-12-24T00:09:47;9.50;80.80
32293;DHT22;43233;48.608;8.838;2022-12-24T00:12:13;9.50;80.50
32293;DHT22;43233;48.608;8.838;2022-12-24T00:14:39;9.50;80.50
32293;DHT22;43233;48.608;8.838;2022-12-24T00:17:04;9.40;79.70
32293;DHT22;43233;48.608;8.838;2022-12-24T00:19:30;9.50;80.10
32293;DHT22;43233;48.608;8.838;2022-12-24T00:21:56;9.50;80.40
32293;DHT22;43233;48.608;8.838;2022-12-24T00:24:21;9.40;80.00
32293;DHT22;43233;48.608;8.838;2022-12-24T00:26:47;9.40;80.10
32293;DHT22;43233;48.608;8.838;2022-12-24T00:29:12;9.40;80.20
32293;DHT22;43233;48.608;8.838;2022-12-24T00:31:38;9.30;80.20
32293;DHT22;43233;48.608;8.838;2022-12-24T00:34:04;9.30;80.20
32293;DHT22;43233;48.608;8.838;2022-12-24T00:36:29;9.20;80.50
32293;DHT22;43233;48.608;8.838;2022-12-24T00:38:55;9.20;80.70
32293;DHT22;43233;48.608;8.838;2022-12-24T00:41:21;9.20;81.00
32293;DHT22;43233;48.608;8.838;2022-12-24T00:43:54;9.20;80.60
32293;DHT22;43233;48.608;8.838;2022-12-24T00:46:21;9.30;80.80
32293;DHT22;43233;48.608;8.838;2022-12-24T00:48:47;9.30;80.00
32293;DHT22;43233;48.608;8.838;2022-12-24T00:51:13;9.40;79.70
32293;DHT22;43233;48.608;8.838;2022-12-24T00:53:39;9.40;79.30
32293;DHT22;43233;48.608;8.838;2022-12-24T00:56:05;9.40;79.50
32293;DHT22;43233;48.608;8.838;2022-12-24T00:58:31;9.30;79.40
32293;DHT22;43233;48.608;8.838;2022-12-24T01:00:56;9.30;79.10
32293;DHT22;43233;48.608;8.838;2022-12-24T01:03:22;9.40;78.90
32293;DHT22;43233;48.608;8.838;2022-12-24T01:05:48;9.30;78.80
32293;DHT22;43233;48.608;8.838;2022-12-24T01:08:15;9.30;79.70
32293;DHT22;43233;48.608;8.838;2022-12-24T01:10:41;9.40;78.90
32293;DHT22;43233;48.608;8.838;2022-12-24T01:13:06;9.40;78.50
32293;DHT22;43233;48.608;8.838;2022-12-24T01:15:32;9.30;78.60
32293;DHT22;43233;48.608;8.838;2022-12-24T01:17:57;9.30;78.60
32293;DHT22;43233;48.608;8.838;2022-12-24T01:20:23;9.30;78.20
32293;DHT22;43233;48.608;8.838;2022-12-24T01:22:51;9.30;78.20
32293;DHT22;43233;48.608;8.838;2022-12-24T01:25:17;9.30;77.40
32293;DHT22;43233;48.608;8.838;2022-12-24T01:27:42;9.40;77.60
32293;DHT22;43233;48.608;8.838;2022-12-24T01:30:12;9.40;77.30
32293;DHT22;43233;48.608;8.838;2022-12-24T01:32:38;9.40;77.30
32293;DHT22;43233;48.608;8.838;2022-12-24T01:35:04;9.30;77.40
32293;DHT22;43233;48.608;8.838;2022-12-24T01:37:30;9.20;77.70
32293;DHT22;43233;48.608;8.838;2022-12-24T01:39:55;9.20;77.60
32293;DHT22;43233;48.608;8.838;2022-12-24T01:42:44;9.20;77.40
32293;DHT22;43233;48.608;8.838;2022-12-24T01:50:49;9.20;77.80
32293;DHT22;43233;48.608;8.838;2022-12-24T01:53:15;9.10;77.80
32293;DHT22;43233;48.608;8.838;2022-12-24T01:55:41;9.10;77.30
32293;DHT22;43233;48.608;8.838;2022-12-24T01:58:10;9.20;77.20
32293;DHT22;43233;48.608;8.838;2022-12-24T02:00:37;9.10;77.40
32293;DHT22;43233;48.608;8.838;2022-12-24T02:03:03;9.00;77.00
32293;DHT22;43233;48.608;8.838;2022-12-24T02:05:50;9.10;76.90
32293;DHT22;43233;48.608;8.838;2022-12-24T02:08:16;9.10;76.70
32293;DHT22;43233;48.608;8.838;2022-12-24T02:10:43;9.20;76.40
32293;DHT22;43233;48.608;8.838;2022-12-24T02:13:09;9.20;76.50
32293;DHT22;43233;48.608;8.838;2022-12-24T02:18:41;9.10;76.70
32293;DHT22;43233;48.608;8.838;2022-12-24T02:21:36;9.10;77.00
32293;DHT22;43233;48.608;8.838;2022-12-24T02:27:16;9.10;76.50
32293;DHT22;43233;48.608;8.838;2022-12-24T02:38:25;9.20;76.40
32293;DHT22;43233;48.608;8.838;2022-12-24T02:41:15;9.20;76.70
32293;DHT22;43233;48.608;8.838;2022-12-24T02:43:43;9.20;76.70
32293;DHT22;43233;48.608;8.838;2022-12-24T02:46:16;9.20;77.00
32293;DHT22;43233;48.608;8.838;2022-12-24T02:48:44;9.10;77.00
32293;DHT22;43233;48.608;8.838;2022-12-24T02:51:12;9.10;78.00
32293;DHT22;43233;48.608;8.838;2022-12-24T02:53:38;9.10;78.00
32293;DHT22;43233;48.608;8.838;2022-12-24T02:56:30;9.10;78.60
32293;DHT22;43233;48.608;8.838;2022-12-24T03:04:34;9.00;79.10
32293;DHT22;43233;48.608;8.838;2022-12-24T03:07:15;9.10;79.70
32293;DHT22;43233;48.608;8.838;2022-12-24T03:10:07;9.00;80.00
32293;DHT22;43233;48.608;8.838;2022-12-24T03:12:43;9.00;79.40
32293;DHT22;43233;48.608;8.838;2022-12-24T03:15:11;9.00;79.20
32293;DHT22;43233;48.608;8.838;2022-12-24T03:17:39;8.90;79.70
32293;DHT22;43233;48.608;8.838;2022-12-24T03:20:08;8.90;79.80
32293;DHT22;43233;48.608;8.838;2022-12-24T03:22:35;8.80;79.40
32293;DHT22;43233;48.608;8.838;2022-12-24T03:25:02;8.90;80.30
32293;DHT22;43233;48.608;8.838;2022-12-24T03:27:29;8.90;79.40
32293;DHT22;43233;48.608;8.838;2022-12-24T03:29:56;9.00;78.90
32293;DHT22;43233;48.608;8.838;2022-12-24T03:32:29;9.00;78.70
32293;DHT22;43233;48.608;8.838;2022-12-24T03:34:55;9.10;78.60
32293;DHT22;43233;48.608;8.838;2022-12-24T03:37:22;9.10;77.60
32293;DHT22;43233;48.608;8.838;2022-12-24T03:39:48;9.10;77.70
32293;DHT22;43233;48.608;8.838;2022-12-24T03:42:13;9.10;77.70
32293;DHT22;43233;48.608;8.838;2022-12-24T03:44:39;9.10;77.50
32293;DHT22;43233;48.608;8.838;2022-12-24T03:47:05;9.10;77.50
32293;DHT22;43233;48.608;8.838;2022-12-24T03:49:30;9.10;77.50
32293;DHT22;43233;48.608;8.838;2022-12-24T03:51:56;9.10;77.20
32293;DHT22;43233;48.608;8.838;2022-12-24T03:54:22;9.00;77.50
32293;DHT22;43233;48.608;8.838;2022-12-24T03:56:47;9.00;77.60
32293;DHT22;43233;48.608;8.838;2022-12-24T03:59:14;9.00;77.70
32293;DHT22;43233;48.608;8.838;2022-12-24T04:01:42;8.90;78.00
32293;DHT22;43233;48.608;8.838;2022-12-24T04:04:07;8.90;77.90
32293;DHT22;43233;48.608;8.838;2022-12-24T04:06:33;8.90;78.30
32293;DHT22;43233;48.608;8.838;2022-12-24T04:08:58;8.80;78.40
32293;DHT22;43233;48.608;8.838;2022-12-24T04:11:26;8.80;78.50
32293;DHT22;43233;48.608;8.838;2022-12-24T04:13:52;8.80;78.70
32293;DHT22;43233;48.608;8.838;2022-12-24T04:16:17;8.90;78.80
32293;DHT22;43233;48.608;8.838;2022-12-24T04:18:43;8.80;78.80
32293;DHT22;43233;48.608;8.838;2022-12-24T04:21:10;8.80;79.10
32293;DHT22;43233;48.608;8.838;2022-12-24T04:23:37;8.70;79.50
32293;DHT22;43233;48.608;8.838;2022-12-24T04:26:04;8.70;79.60
32293;DHT22;43233;48.608;8.838;2022-12-24T04:28:32;8.70;79.80
32293;DHT22;43233;48.608;8.838;2022-12-24T04:31:02;8.70;79.70
32293;DHT22;43233;48.608;8.838;2022-12-24T04:33:28;8.60;80.10
32293;DHT22;43233;48.608;8.838;2022-12-24T04:35:56;8.60;80.40
32293;DHT22;43233;48.608;8.838;2022-12-24T04:38:21;8.70;80.20
32293;DHT22;43233;48.608;8.838;2022-12-24T04:40:47;8.60;80.00
32293;DHT22;43233;48.608;8.838;2022-12-24T04:43:13;8.60;80.30
32293;DHT22;43233;48.608;8.838;2022-12-24T04:45:39;8.60;80.30
32293;DHT22;43233;48.608;8.838;2022-12-24T04:48:04;8.60;80.70
32293;DHT22;43233;48.608;8.838;2022-12-24T04:50:30;8.60;80.80
32293;DHT22;43233;48.608;8.838;2022-12-24T04:52:56;8.50;81.20
32293;DHT22;43233;48.608;8.838;2022-12-24T04:55:21;8.50;81.10
32293;DHT22;43233;48.608;8.838;2022-12-24T04:57:47;8.50;81.30
32293;DHT22;43233;48.608;8.838;2022-12-24T05:00:13;8.60;80.90
32293;DHT22;43233;48.608;8.838;2022-12-24T05:02:38;8.60;80.80
32293;DHT22;43233;48.608;8.838;2022-12-24T05:05:04;8.60;80.60
32293;DHT22;43233;48.608;8.838;2022-12-24T05:07:30;8.60;80.90
32293;DHT22;43233;48.608;8.838;2022-12-24T05:09:55;8.50;81.30
32293;DHT22;43233;48.608;8.838;2022-12-24T05:12:21;8.50;81.40
32293;DHT22;43233;48.608;8.838;2022-12-24T05:14:47;8.50;81.40
32293;DHT22;43233;48.608;8.838;2022-12-24T05:17:13;8.50;81.20
32293;DHT22;43233;48.608;8.838;2022-12-24T05:19:38;8.40;81.10
32293;DHT22;43233;48.608;8.838;2022-12-24T05:22:04;8.30;81.40
32293;DHT22;43233;48.608;8.838;2022-12-24T05:24:49;8.30;81.70
32293;DHT22;43233;48.608;8.838;2022-12-24T05:27:33;8.20;81.80
32293;DHT22;43233;48.608;8.838;2022-12-24T05:29:58;8.20;81.50
32293;DHT22;43233;48.608;8.838;2022-12-24T05:32:24;8.20;81.30
32293;DHT22;43233;48.608;8.838;2022-12-24T05:34:50;8.20;81.00
32293;DHT22;43233;48.608;8.838;2022-12-24T05:37:15;8.30;80.70
32293;DHT22;43233;48.608;8.838;2022-12-24T05:39:41;8.30;80.20
32293;DHT22;43233;48.608;8.838;2022-12-24T05:42:07;8.30;79.70
32293;DHT22;43233;48.608;8.838;2022-12-24T05:44:32;8.30;79.30
32293;DHT22;43233;48.608;8.838;2022-12-24T05:46:58;8.40;79.10
32293;DHT22;43233;48.608;8.838;2022-12-24T05:49:24;8.40;79.10
32293;DHT22;43233;48.608;8.838;2022-12-24T05:51:49;8.40;78.90
32293;DHT22;43233;48.608;8.838;2022-12-24T05:54:15;8.40;78.80
32293;DHT22;43233;48.608;8.838;2022-12-24T05:56:40;8.40;78.80
32293;DHT22;43233;48.608;8.838;2022-12-24T05:59:06;8.50;78.80
32293;DHT22;43233;48.608;8.838;2022-12-24T06:01:32;8.40;78.40
32293;DHT22;43233;48.608;8.838;2022-12-24T06:03:57;8.40;78.40
32293;DHT22;43233;48.608;8.838;2022-12-24T06:06:25;8.40;78.50
32293;DHT22;43233;48.608;8.838;2022-12-24T06:08:52;8.40;78.50
32293;DHT22;43233;48.608;8.838;2022-12-24T06:11:21;8.40;78.40
32293;DHT22;43233;48.608;8.838;2022-12-24T06:13:47;8.40;78.20
32293;DHT22;43233;48.608;8.838;2022-12-24T06:16:15;8.40;78.20
32293;DHT22;43233;48.608;8.838;2022-12-24T06:18:42;8.40;78.20
32293;DHT22;43233;48.608;8.838;2022-12-24T06:21:08;8.40;77.80
32293;DHT22;43233;48.608;8.838;2022-12-24T06:23:37;8.40;77.60
32293;DHT22;43233;48.608;8.838;2022-12-24T06:26:04;8.40;77.80
32293;DHT22;43233;48.608;8.838;2022-12-24T06:28:31;8.40;77.40
32293;DHT22;43233;48.608;8.838;2022-12-24T06:30:58;8.50;77.00
32293;DHT22;43233;48.608;8.838;2022-12-24T06:33:23;8.50;76.70
32293;DHT22;43233;48.608;8.838;2022-12-24T06:35:49;8.50;76.70
32293;DHT22;43233;48.608;8.838;2022-12-24T06:38:15;8.50;76.90
32293;DHT22;43233;48.608;8.838;2022-12-24T06:40:42;8.50;76.40
32293;DHT22;43233;48.608;8.838;2022-12-24T06:43:09;8.50;76.30
32293;DHT22;43233;48.608;8.838;2022-12-24T06:45:35;8.50;76.00
32293;DHT22;43233;48.608;8.838;2022-12-24T06:48:01;8.50;75.80
32293;DHT22;43233;48.608;8.838;2022-12-24T06:50:27;8.50;75.70
32293;DHT22;43233;48.608;8.838;2022-12-24T06:52:53;8.50;75.20
32293;DHT22;43233;48.608;8.838;2022-12-24T06:55:19;8.50;76.10
32293;DHT22;43233;48.608;8.838;2022-12-24T06:57:44;8.50;75.50
32293;DHT22;43233;48.608;8.838;2022-12-24T07:00:11;8.50;75.30
32293;DHT22;43233;48.608;8.838;2022-12-24T07:02:41;8.40;75.30
32293;DHT22;43233;48.608;8.838;2022-12-24T07:05:07;8.50;75.40
32293;DHT22;43233;48.608;8.838;2022-12-24T07:07:36;8.50;75.20
32293;DHT22;43233;48.608;8.838;2022-12-24T07:10:03;8.50;74.80
32293;DHT22;43233;48.608;8.838;2022-12-24T07:12:29;8.40;74.60
32293;DHT22;43233;48.608;8.838;2022-12-24T07:14:54;8.50;74.80
32293;DHT22;43233;48.608;8.838;2022-12-24T07:17:20;8.40;74.80
32293;DHT22;43233;48.608;8.838;2022-12-24T07:19:46;8.50;74.70
32293;DHT22;43233;48.608;8.838;2022-12-24T07:22:12;8.50;74.80
32293;DHT22;43233;48.608;8.838;2022-12-24T07:24:37;8.50;75.00
32293;DHT22;43233;48.608;8.838;2022-12-24T07:27:03;8.50;75.30
32293;DHT22;43233;48.608;8.838;2022-12-24T07:29:29;8.60;75.40
32293;DHT22;43233;48.608;8.838;2022-12-24T07:31:54;8.60;75.70
32293;DHT22;43233;48.608;8.838;2022-12-24T07:34:20;8.50;75.80
32293;DHT22;43233;48.608;8.838;2022-12-24T07:36:46;8.50;76.20
32293;DHT22;43233;48.608;8.838;2022-12-24T07:39:11;8.40;75.50
32293;DHT22;43233;48.608;8.838;2022-12-24T07:41:37;8.30;75.30
32293;DHT22;43233;48.608;8.838;2022-12-24T07:44:02;8.30;75.40
32293;DHT22;43233;48.608;8.838;2022-12-24T07:46:28;8.30;75.50
32293;DHT22;43233;48.608;8.838;2022-12-24T07:48:54;8.30;75.70
32293;DHT22;43233;48.608;8.838;2022-12-24T07:51:19;8.20;75.60
32293;DHT22;43233;48.608;8.838;2022-12-24T07:53:45;8.20;75.80
32293;DHT22;43233;48.608;8.838;2022-12-24T07:56:15;8.20;75.90
32293;DHT22;43233;48.608;8.838;2022-12-24T07:58:42;8.10;76.30
32293;DHT22;43233;48.608;8.838;2022-12-24T08:01:08;8.20;76.40
32293;DHT22;43233;48.608;8.838;2022-12-24T08:03:34;8.10;77.30
32293;DHT22;43233;48.608;8.838;2022-12-24T08:06:00;8.10;76.70
32293;DHT22;43233;48.608;8.838;2022-12-24T08:08:25;8.10;76.90
32293;DHT22;43233;48.608;8.838;2022-12-24T08:10:51;8.10;76.90
32293;DHT22;43233;48.608;8.838;2022-12-24T08:13:17;8.20;76.60
32293;DHT22;43233;48.608;8.838;2022-12-24T08:15:43;8.30;76.80
32293;DHT22;43233;48.608;8.838;2022-12-24T08:18:09;8.30;76.70
32293;DHT22;43233;48.608;8.838;2022-12-24T08:20:39;8.30;76.50
32293;DHT22;43233;48.608;8.838;2022-12-24T08:23:06;8.40;76.90
32293;DHT22;43233;48.608;8.838;2022-12-24T08:25:32;8.40;77.10
32293;DHT22;43233;48.608;8.838;2022-12-24T08:27:58;8.40;78.80
32293;DHT22;43233;48.608;8.838;2022-12-24T08:30:23;8.40;80.10
32293;DHT22;43233;48.608;8.838;2022-12-24T08:32:49;8.40;80.50
32293;DHT22;43233;48.608;8.838;2022-12-24T08:35:15;8.40;80.50
32293;DHT22;43233;48.608;8.838;2022-12-24T08:37:41;8.40;80.50
32293;DHT22;43233;48.608;8.838;2022-12-24T08:40:07;8.40;80.20
32293;DHT22;43233;48.608;8.838;2022-12-24T08:42:33;8.40;80.20
32293;DHT22;43233;48.608;8.838;2022-12-24T08:44:59;8.40;80.20
32293;DHT22;43233;48.608;8.838;2022-12-24T08:47:24;8.40;80.30
32293;DHT22;43233;48.608;8.838;2022-12-24T08:49:50;8.40;80.40
32293;DHT22;43233;48.608;8.838;2022-12-24T08:52:15;8.50;80.30
32293;DHT22;43233;48.608;8.838;2022-12-24T08:54:41;8.50;80.00
32293;DHT22;43233;48.608;8.838;2022-12-24T08:57:07;8.60;79.40
32293;DHT22;43233;48.608;8.838;2022-12-24T08:59:33;8.70;78.80
32293;DHT22;43233;48.608;8.838;2022-12-24T09:01:58;8.60;77.50
32293;DHT22;43233;48.608;8.838;2022-12-24T09:04:24;8.60;77.50
32293;DHT22;43233;48.608;8.838;2022-12-24T09:06:49;8.70;77.60
32293;DHT22;43233;48.608;8.838;2022-12-24T09:09:15;8.70;77.50
32293;DHT22;43233;48.608;8.838;2022-12-24T09:11:41;8.70;78.60
32293;DHT22;43233;48.608;8.838;2022-12-24T09:14:06;8.80;78.60
32293;DHT22;43233;48.608;8.838;2022-12-24T09:16:32;8.80;78.40
32293;DHT22;43233;48.608;8.838;2022-12-24T09:18:58;8.80;78.20
32293;DHT22;43233;48.608;8.838;2022-12-24T09:21:23;8.90;78.30
32293;DHT22;43233;48.608;8.838;2022-12-24T09:23:49;8.90;78.10
32293;DHT22;43233;48.608;8.838;2022-12-24T09:26:18;8.90;78.70
32293;DHT22;43233;48.608;8.838;2022-12-24T09:28:44;8.90;77.80
32293;DHT22;43233;48.608;8.838;2022-12-24T09:31:11;9.00;77.00
32293;DHT22;43233;48.608;8.838;2022-12-24T09:33:38;9.10;77.20
32293;DHT22;43233;48.608;8.838;2022-12-24T09:36:05;9.10;77.50
32293;DHT22;43233;48.608;8.838;2022-12-24T09:38:31;8.90;77.60
32293;DHT22;43233;48.608;8.838;2022-12-24T09:40:58;9.00;77.40
32293;DHT22;43233;48.608;8.838;2022-12-24T09:43:27;9.10;77.20
32293;DHT22;43233;48.608;8.838;2022-12-24T09:46:19;9.10;77.20
32293;DHT22;43233;48.608;8.838;2022-12-24T09:48:49;9.20;77.20
32293;DHT22;43233;48.608;8.838;2022-12-24T09:51:19;9.20;77.00
32293;DHT22;43233;48.608;8.838;2022-12-24T09:56:46;9.30;77.00
32293;DHT22;43233;48.608;8.838;2022-12-24T09:59:23;9.40;76.60
32293;DHT22;43233;48.608;8.838;2022-12-24T10:01:52;9.40;77.10
32293;DHT22;43233;48.608;8.838;2022-12-24T10:04:20;9.50;77.00
32293;DHT22;43233;48.608;8.838;2022-12-24T10:15:06;10.20;75.90
32293;DHT22;43233;48.608;8.838;2022-12-24T10:18:02;10.50;74.10
32293;DHT22;43233;48.608;8.838;2022-12-24T10:28:14;10.70;73.80
32293;DHT22;43233;48.608;8.838;2022-12-24T10:30:41;10.70;73.40
32293;DHT22;43233;48.608;8.838;2022-12-24T10:33:19;10.60;72.70
32293;DHT22;43233;48.608;8.838;2022-12-24T10:35:50;10.50;71.80
32293;DHT22;43233;48.608;8.838;2022-12-24T10:38:18;10.50;71.80
32293;DHT22;43233;48.608;8.838;2022-12-24T10:40:47;10.30;72.00
32293;DHT22;43233;48.608;8.838;2022-12-24T10:43:15;10.20;72.60
32293;DHT22;43233;48.608;8.838;2022-12-24T10:45:45;10.30;72.40
32293;DHT22;43233;48.608;8.838;2022-12-24T10:48:19;10.20;73.40
32293;DHT22;43233;48.608;8.838;2022-12-24T10:53:41;10.20;73.80
32293;DHT22;43233;48.608;8.838;2022-12-24T10:56:10;10.20;73.60
32293;DHT22;43233;48.608;8.838;2022-12-24T10:58:43;10.20;73.40
32293;DHT22;43233;48.608;8.838;2022-12-24T11:01:10;10.20;73.10
32293;DHT22;43233;48.608;8.838;2022-12-24T11:03:36;10.30;72.70
32293;DHT22;43233;48.608;8.838;2022-12-24T11:06:15;10.30;72.70
32293;DHT22;43233;48.608;8.838;2022-12-24T11:08:46;10.40;72.80
32293;DHT22;43233;48.608;8.838;2022-12-24T11:11:17;10.40;72.00
32293;DHT22;43233;48.608;8.838;2022-12-24T11:18:50;10.60;71.90
32293;DHT22;43233;48.608;8.838;2022-12-24T11:21:25;10.70;72.50
32293;DHT22;43233;48.608;8.838;2022-12-24T11:23:59;10.70;71.80
32293;DHT22;43233;48.608;8.838;2022-12-24T11:26:29;10.80;72.30
32293;DHT22;43233;48.608;8.838;2022-12-24T11:31:43;11.00;70.60
32293;DHT22;43233;48.608;8.838;2022-12-24T11:36:49;11.00;69.30
32293;DHT22;43233;48.608;8.838;2022-12-24T11:39:23;11.00;69.30
32293;DHT22;43233;48.608;8.838;2022-12-24T11:41:51;10.90;68.50
32293;DHT22;43233;48.608;8.838;2022-12-24T11:44:25;11.10;69.60
32293;DHT22;43233;48.608;8.838;2022-12-24T11:46:52;11.20;69.50
32293;DHT22;43233;48.608;8.838;2022-12-24T11:49:29;11.20;68.50
32293;DHT22;43233;48.608;8.838;2022-12-24T11:57:08;11.50;65.90
32293;DHT22;43233;48.608;8.838;2022-12-24T11:59:42;11.40;65.60
32293;DHT22;43233;48.608;8.838;2022-12-24T12:02:22;11.60;66.50
32293;DHT22;43233;48.608;8.838;2022-12-24T12:04:55;11.70;65.60
32293;DHT22;43233;48.608;8.838;2022-12-24T12:07:30;11.90;65.70
32293;DHT22;43233;48.608;8.838;2022-12-24T12:12:44;12.10;62.20
32293;DHT22;43233;48.608;8.838;2022-12-24T12:15:19;12.20;62.60
32293;DHT22;43233;48.608;8.838;2022-12-24T12:18:08;12.40;61.10
32293;DHT22;43233;48.608;8.838;2022-12-24T12:20:40;12.80;60.50
32293;DHT22;43233;48.608;8.838;2022-12-24T12:26:11;13.30;58.60
32293;DHT22;43233;48.608;8.838;2022-12-24T12:29:44;13.30;56.40
32293;DHT22;43233;48.608;8.838;2022-12-24T12:31:54;13.40;55.30
32293;DHT22;43233;48.608;8.838;2022-12-24T12:34:38;13.90;55.60
32293;DHT22;43233;48.608;8.838;2022-12-24T12:39:35;13.70;54.10
32293;DHT22;43233;48.608;8.838;2022-12-24T12:50:30;13.50;53.20
32293;DHT22;43233;48.608;8.838;2022-12-24T12:58:29;12.90;56.10
32293;DHT22;43233;48.608;8.838;2022-12-24T13:01:10;13.00;56.10
32293;DHT22;43233;48.608;8.838;2022-12-24T13:12:31;13.00;55.20
32293;DHT22;43233;48.608;8.838;2022-12-24T13:17:58;13.20;56.00
32293;DHT22;43233;48.608;8.838;2022-12-24T13:20:32;13.30;55.20
32293;DHT22;43233;48.608;8.838;2022-12-24T13:23:13;13.10;54.70
32293;DHT22;43233;48.608;8.838;2022-12-24T13:25:47;12.90;55.50
32293;DHT22;43233;48.608;8.838;2022-12-24T13:28:34;13.20;55.30
32293;DHT22;43233;48.608;8.838;2022-12-24T13:36:06;13.30;52.80
32293;DHT22;43233;48.608;8.838;2022-12-24T13:38:33;13.20;53.70
32293;DHT22;43233;48.608;8.838;2022-12-24T13:44:37;13.10;54.40
32293;DHT22;43233;48.608;8.838;2022-12-24T13:49:43;13.30;54.60
32293;DHT22;43233;48.608;8.838;2022-12-24T13:55:22;13.60;53.70
32293;DHT22;43233;48.608;8.838;2022-12-24T13:59:58;13.40;54.50
32293;DHT22;43233;48.608;8.838;2022-12-24T14:02:25;13.10;54.70
32293;DHT22;43233;48.608;8.838;2022-12-24T14:04:52;12.90;56.30
32293;DHT22;43233;48.608;8.838;2022-12-24T14:07:20;12.80;56.80
32293;DHT22;43233;48.608;8.838;2022-12-24T14:09:50;12.70;56.90
32293;DHT22;43233;48.608;8.838;2022-12-24T14:12:32;12.70;57.20
32293;DHT22;43233;48.608;8.838;2022-12-24T14:18:02;12.20;58.90
32293;DHT22;43233;48.608;8.838;2022-12-24T14:20:31;12.00;59.50
32293;DHT22;43233;48.608;8.838;2022-12-24T14:22:57;11.80;60.70
32293;DHT22;43233;48.608;8.838;2022-12-24T14:25:23;11.60;61.80
32293;DHT22;43233;48.608;8.838;2022-12-24T14:27:58;11.50;62.70
32293;DHT22;43233;48.608;8.838;2022-12-24T14:30:27;11.30;63.30
32293;DHT22;43233;48.608;8.838;2022-12-24T14:32:53;11.20;64.20
32293;DHT22;43233;48.608;8.838;2022-12-24T14:35:27;11.10;64.80
32293;DHT22;43233;48.608;8.838;2022-12-24T14:38:06;11.00;65.40
32293;DHT22;43233;48.608;8.838;2022-12-24T14:40:42;11.00;65.70
32293;DHT22;43233;48.608;8.838;2022-12-24T14:43:27;10.90;66.30
32293;DHT22;43233;48.608;8.838;2022-12-24T14:48:47;10.90;66.40
32293;DHT22;43233;48.608;8.838;2022-12-24T14:54:43;10.70;67.30
32293;DHT22;43233;48.608;8.838;2022-12-24T14:59:58;10.70;67.40
32293;DHT22;43233;48.608;8.838;2022-12-24T15:02:41;10.70;67.40
32293;DHT22;43233;48.608;8.838;2022-12-24T15:05:14;10.80;67.20
32293;DHT22;43233;48.608;8.838;2022-12-24T15:07:46;10.70;67.10
32293;DHT22;43233;48.608;8.838;2022-12-24T15:12:57;10.70;67.40
32293;DHT22;43233;48.608;8.838;2022-12-24T15:15:25;10.70;67.50
32293;DHT22;43233;48.608;8.838;2022-12-24T15:17:52;10.70;67.40
32293;DHT22;43233;48.608;8.838;2022-12-24T15:20:23;10.70;67.50
32293;DHT22;43233;48.608;8.838;2022-12-24T15:22:52;10.80;67.30
32293;DHT22;43233;48.608;8.838;2022-12-24T15:25:36;10.80;67.40
32293;DHT22;43233;48.608;8.838;2022-12-24T15:28:02;10.90;67.40
32293;DHT22;43233;48.608;8.838;2022-12-24T15:30:30;10.90;67.00
32293;DHT22;43233;48.608;8.838;2022-12-24T15:32:56;10.90;66.90
32293;DHT22;43233;48.608;8.838;2022-12-24T15:35:54;10.90;66.90
32293;DHT22;43233;48.608;8.838;2022-12-24T15:38:29;11.00;66.30
32293;DHT22;43233;48.608;8.838;2022-12-24T15:40:56;11.00;66.30
32293;DHT22;43233;48.608;8.838;2022-12-24T15:43:22;11.00;66.40
32293;DHT22;43233;48.608;8.838;2022-12-24T15:45:49;11.00;66.70
32293;DHT22;43233;48.608;8.838;2022-12-24T15:48:24;11.00;67.00
32293;DHT22;43233;48.608;8.838;2022-12-24T15:50:59;10.90;67.20
32293;DHT22;43233;48.608;8.838;2022-12-24T15:53:31;10.90;67.40
32293;DHT22;43233;48.608;8.838;2022-12-24T15:56:06;10.80;67.50
32293;DHT22;43233;48.608;8.838;2022-12-24T15:58:38;10.80;67.50
32293;DHT22;43233;48.608;8.838;2022-12-24T16:06:13;10.60;68.30
32293;DHT22;43233;48.608;8.838;2022-12-24T16:08:43;10.60;68.10
32293;DHT22;43233;48.608;8.838;2022-12-24T16:11:25;10.50;68.40
32293;DHT22;43233;48.608;8.838;2022-12-24T16:14:12;10.40;68.70
32293;DHT22;43233;48.608;8.838;2022-12-24T16:16:39;10.30;68.70
32293;DHT22;43233;48.608;8.838;2022-12-24T16:19:06;10.30;68.80
32293;DHT22;43233;48.608;8.838;2022-12-24T16:21:40;10.30;68.60
32293;DHT22;43233;48.608;8.838;2022-12-24T16:24:17;10.30;68.60
32293;DHT22;43233;48.608;8.838;2022-12-24T16:26:45;10.30;68.60
32293;DHT22;43233;48.608;8.838;2022-12-24T16:29:11;10.30;68.60
32293;DHT22;43233;48.608;8.838;2022-12-24T16:31:54;10.40;68.50
32293;DHT22;43233;48.608;8.838;2022-12-24T16:34:26;10.40;68.40
32293;DHT22;43233;48.608;8.838;2022-12-24T16:36:52;10.40;68.20
32293;DHT22;43233;48.608;8.838;2022-12-24T16:39:23;10.40;68.20
32293;DHT22;43233;48.608;8.838;2022-12-24T16:42:00;10.50;68.10
32293;DHT22;43233;48.608;8.838;2022-12-24T16:44:45;10.40;67.90
32293;DHT22;43233;48.608;8.838;2022-12-24T16:47:14;10.30;67.80
32293;DHT22;43233;48.608;8.838;2022-12-24T16:49:41;10.20;68.00
32293;DHT22;43233;48.608;8.838;2022-12-24T16:52:19;10.10;68.30
32293;DHT22;43233;48.608;8.838;2022-12-24T16:54:47;10.10;67.90
32293;DHT22;43233;48.608;8.838;2022-12-24T16:57:13;10.00;68.00
32293;DHT22;43233;48.608;8.838;2022-12-24T16:59:39;10.10;68.00
32293;DHT22;43233;48.608;8.838;2022-12-24T17:02:05;10.10;67.90
32293;DHT22;43233;48.608;8.838;2022-12-24T17:04:32;10.00;68.10
32293;DHT22;43233;48.608;8.838;2022-12-24T17:06:58;10.00;68.20
32293;DHT22;43233;48.608;8.838;2022-12-24T17:09:23;10.00;68.40
32293;DHT22;43233;48.608;8.838;2022-12-24T17:11:49;9.90;68.30
32293;DHT22;43233;48.608;8.838;2022-12-24T17:14:15;10.00;68.40
32293;DHT22;43233;48.608;8.838;2022-12-24T17:16:41;10.00;68.40
32293;DHT22;43233;48.608;8.838;2022-12-24T17:19:07;10.00;68.50
32293;DHT22;43233;48.608;8.838;2022-12-24T17:21:33;10.00;68.70
32293;DHT22;43233;48.608;8.838;2022-12-24T17:23:59;10.00;68.50
32293;DHT22;43233;48.608;8.838;2022-12-24T17:26:25;10.00;68.60
32293;DHT22;43233;48.608;8.838;2022-12-24T17:28:57;10.00;68.80
32293;DHT22;43233;48.608;8.838;2022-12-24T17:31:23;10.00;68.90
32293;DHT22;43233;48.608;8.838;2022-12-24T17:33:50;10.00;69.00
32293;DHT22;43233;48.608;8.838;2022-12-24T17:36:18;9.90;69.20
32293;DHT22;43233;48.608;8.838;2022-12-24T17:38:43;10.00;69.10
32293;DHT22;43233;48.608;8.838;2022-12-24T17:41:11;10.00;68.80
32293;DHT22;43233;48.608;8.838;2022-12-24T17:43:37;10.00;68.60
32293;DHT22;43233;48.608;8.838;2022-12-24T17:46:05;10.00;68.60
32293;DHT22;43233;48.608;8.838;2022-12-24T17:48:31;10.00;68.70
32293;DHT22;43233;48.608;8.838;2022-12-24T17:50:57;10.00;68.90
32293;DHT22;43233;48.608;8.838;2022-12-24T17:53:22;10.00;68.90
32293;DHT22;43233;48.608;8.838;2022-12-24T17:55:48;10.00;68.80
32293;DHT22;43233;48.608;8.838;2022-12-24T17:58:14;9.90;68.80
32293;DHT22;43233;48.608;8.838;2022-12-24T18:00:40;9.90;69.00
32293;DHT22;43233;48.608;8.838;2022-12-24T18:03:06;9.90;69.50